Aérodrome :
LOGIN :

S'inscrire | Disclaimer

   EN    FR    IT 

 










Légende :    VFR   VFR Marginal   IFR   IFR Intensif   IFR Très Intensif
Visi : 
Plafond : 
>= 8 km
>= 3000ft
5 à 8 km
1000 à 3000 ft
1500m à 5 km
500 à 1000 ft
800 à 1500m
200 à 500 ft
< 800m
< 200 ft
Symboles :   Orages  Brouillard  Fortes neiges  Fortes précipitations  Vent > 20 kt
SIGMETs :   Divers  Orages  Givrage  Turbulence  Onde Orograph.  Cendres Volcan.






- Altitude de l'aérodrome : 1071 ft
- Code IATA : LWO


UKLL - L'viv

DERNIER METAR :
  • 230800Z 20002MPS 140V230 CAVOK 20/12 Q1013 R13/CLRD// NOSIG

METARs EXPIRÉS :
  • 230730Z 16002MPS 130V210 CAVOK 19/12 Q1013 R13/D NOSIG
  • 230700Z 16002MPS CAVOK 17/12 Q1014 R13/CLRD// NOSIG
  • 230630Z 16002MPS CAVOK 15/10 Q1014 R13/CLRD// NOSIG
  • 230600Z 15002MPS CAVOK 13/10 Q1014 R13/CLRD// NOSIG
  • 230530Z 16003MPS CAVOK 12/10 Q1014 R13/D NOSIG

TAF TAF UKLL
Valide du 23 à 06h jusqu'au 24 à 06h UTC


230503Z 2306/2406 15003MPS 9999 SCT030
TEMPO 2312/2318 2100 FU
TEMPO 2402/2406 17004MPS 3000 -SHRA SCT007 BKN015CB



MET'MAP, la Météo Aéronautique d'un coup d'oeil ! - Copyright ORBIFLY Décembre 2007 - Disclaimer

ORBIFLY MET'MAP TEAM :

Programmation & Développement : Alexandra Zaïnal
Sur une idée originale de : Baudouin d'Aumeries
Assistance à la programmation : Marc-Olivier Méhu
Soutien technique & logistique : Manuel Goepfert

Contact : metmap@orbifly.com




SOURCES & CREDITS :

   NOAA